Time;durP1;ratioP1;P1;durP2;ratioP2;P2;SDS_P1;SDS_P2;PMS_P1;PMS_P2;Temp;Humidity;BMP_temperature;BMP_pressure;BME280_temperature;BME280_humidity;BME280_pressure;Samples;Min_cycle;Max_cycle;Signal;HPM_P1;HPM_P2
2022/11/17 00:01:27;;;;;;;0.40;0.40;;;1.50;99.90;;;;;;5033465;28;20060;-74
2022/11/17 00:03:53;;;;;;;0.40;0.40;;;1.50;99.90;;;;;;5032408;28;20344;-74
2022/11/17 00:06:19;;;;;;;0.40;0.40;;;1.50;99.90;;;;;;5032163;28;20117;-75
2022/11/17 00:08:45;;;;;;;0.40;0.40;;;1.50;99.90;;;;;;5032365;28;20508;-76
2022/11/17 00:11:11;;;;;;;0.80;0.80;;;1.50;99.90;;;;;;5033351;28;20029;-75
2022/11/17 00:16:21;;;;;;;0.80;0.80;;;1.40;99.90;;;;;;5033450;28;20121;-75
2022/11/17 00:21:32;;;;;;;0.40;0.40;;;1.30;99.90;;;;;;5033083;28;20152;-74
2022/11/17 00:23:58;;;;;;;0.40;0.40;;;1.40;99.90;;;;;;5033587;28;20056;-75
2022/11/17 00:26:26;;;;;;;0.40;0.40;;;1.30;99.90;;;;;;5032072;28;20030;-75
2022/11/17 00:28:56;;;;;;;0.30;0.30;;;1.30;99.90;;;;;;5033434;28;20492;-74
2022/11/17 00:34:17;;;;;;;0.40;0.40;;;1.30;99.90;;;;;;5034115;28;20044;-74
2022/11/17 00:36:50;;;;;;;0.40;0.40;;;1.30;99.90;;;;;;5033335;28;20473;-74
2022/11/17 00:39:17;;;;;;;0.38;0.38;;;1.30;99.90;;;;;;5033063;28;20501;-75
2022/11/17 00:41:45;;;;;;;0.40;0.40;;;1.30;99.90;;;;;;5031619;28;20507;-74
2022/11/17 00:44:11;;;;;;;0.88;0.88;;;1.30;99.90;;;;;;5031990;28;20033;-74
2022/11/17 00:46:37;;;;;;;0.70;0.70;;;1.30;99.90;;;;;;5032737;28;20025;-75
2022/11/17 00:49:08;;;;;;;0.45;0.45;;;1.30;99.90;;;;;;5031080;28;20405;-75
2022/11/17 00:51:34;;;;;;;0.60;0.60;;;1.20;99.90;;;;;;5032780;28;20124;-75
2022/11/17 00:54:00;;;;;;;0.50;0.50;;;1.20;99.90;;;;;;5033168;28;20069;-75
2022/11/17 00:56:26;;;;;;;0.50;0.50;;;1.20;99.90;;;;;;5032697;28;20480;-75
2022/11/17 00:58:53;;;;;;;0.85;0.85;;;1.20;99.90;;;;;;5031571;28;20477;-75
2022/11/17 01:01:19;;;;;;;0.50;0.50;;;1.30;99.90;;;;;;5031225;28;20480;-75
2022/11/17 01:03:45;;;;;;;0.40;0.40;;;1.30;99.90;;;;;;5032484;28;20029;-75
2022/11/17 01:06:13;;;;;;;1.10;1.10;;;1.30;99.90;;;;;;5032348;28;20034;-75
2022/11/17 01:08:39;;;;;;;1.30;1.20;;;1.30;99.90;;;;;;5031203;28;20057;-74
2022/11/17 01:11:11;;;;;;;0.88;0.80;;;1.50;99.90;;;;;;5030875;28;20040;-75
2022/11/17 01:13:38;;;;;;;0.40;0.40;;;1.30;99.90;;;;;;5032377;28;20456;-75
2022/11/17 01:16:05;;;;;;;;;;;1.30;99.90;;;;;;5031591;28;20025;-74
2022/11/17 01:18:31;;;;;;;0.40;0.40;;;1.30;99.90;;;;;;5032733;28;19913;-74
2022/11/17 01:21:03;;;;;;;0.85;0.85;;;1.30;99.90;;;;;;5032566;28;20030;-74
2022/11/17 01:23:28;;;;;;;0.30;0.30;;;1.30;99.90;;;;;;5031050;28;20404;-73
2022/11/17 01:26:03;;;;;;;0.70;0.70;;;2.10;99.90;;;;;;5030964;28;20014;-75
2022/11/17 01:28:29;;;;;;;1.92;1.83;;;1.20;99.90;;;;;;5032433;28;20477;-74
2022/11/17 01:31:03;;;;;;;0.40;0.40;;;1.20;99.90;;;;;;5030398;28;20025;-76
2022/11/17 01:33:30;;;;;;;0.52;0.52;;;1.30;99.90;;;;;;5030585;28;20033;-75
2022/11/17 01:35:59;;;;;;;0.40;0.40;;;1.20;99.90;;;;;;5031863;28;20045;-75
2022/11/17 01:38:25;;;;;;;0.30;0.30;;;1.20;99.90;;;;;;5032025;28;20045;-75
2022/11/17 01:40:50;;;;;;;0.80;0.80;;;1.20;99.90;;;;;;5031864;28;20029;-74
2022/11/17 01:43:16;;;;;;;0.40;0.40;;;1.20;99.90;;;;;;5030334;28;20505;-74
2022/11/17 01:45:43;;;;;;;0.40;0.40;;;1.20;99.90;;;;;;5030190;28;20018;-75
2022/11/17 01:48:13;;;;;;;0.40;0.40;;;1.20;99.90;;;;;;5031560;28;20084;-75
2022/11/17 01:50:44;;;;;;;0.50;0.50;;;1.20;99.90;;;;;;5030051;28;20033;-76
2022/11/17 01:53:16;;;;;;;0.40;0.40;;;1.40;99.90;;;;;;5031820;28;20060;-75
2022/11/17 01:55:53;;;;;;;0.50;0.50;;;1.20;99.90;;;;;;5031261;28;20033;-74
2022/11/17 01:58:22;;;;;;;;;;;1.20;99.90;;;;;;5032060;28;20037;-74
2022/11/17 02:00:48;;;;;;;0.40;0.40;;;1.10;99.90;;;;;;5031087;28;19991;-74
2022/11/17 02:03:13;;;;;;;0.60;0.60;;;1.90;99.90;;;;;;5031415;28;20037;-75
2022/11/17 02:06:06;;;;;;;0.40;0.40;;;1.10;99.90;;;;;;5029615;28;20030;-74
2022/11/17 02:08:33;;;;;;;0.95;0.95;;;1.10;99.90;;;;;;5029795;28;20053;-75
2022/11/17 02:11:01;;;;;;;0.70;0.70;;;1.10;99.90;;;;;;5030929;28;20042;-76
2022/11/17 02:13:27;;;;;;;0.50;0.50;;;1.00;99.90;;;;;;5029688;28;20072;-75
2022/11/17 02:15:52;;;;;;;0.50;0.50;;;1.00;99.90;;;;;;5029929;28;20453;-75
2022/11/17 02:18:19;;;;;;;0.50;0.50;;;;;;;;;;5029461;28;20065;-75
2022/11/17 02:21:03;;;;;;;0.40;0.40;;;1.00;99.90;;;;;;5029385;28;20473;-75
2022/11/17 02:24:06;;;;;;;0.55;0.55;;;1.00;99.90;;;;;;5030656;28;20033;-76
2022/11/17 02:27:19;;;;;;;0.40;0.40;;;0.90;99.90;;;;;;5029336;28;20473;-74
2022/11/17 02:30:05;;;;;;;0.50;0.50;;;0.90;99.90;;;;;;5027447;28;20121;-75
2022/11/17 02:32:41;;;;;;;1.60;1.50;;;0.90;99.90;;;;;;5030827;28;20082;-75
2022/11/17 02:35:27;;;;;;;1.00;1.00;;;0.90;99.90;;;;;;5029469;28;20120;-76
2022/11/17 02:38:15;;;;;;;0.50;0.50;;;0.90;99.90;;;;;;5029438;28;20489;-74
2022/11/17 02:41:21;;;;;;;0.40;0.40;;;1.60;99.90;;;;;;5029264;28;20376;-76
2022/11/17 02:44:03;;;;;;;0.40;0.40;;;0.80;99.90;;;;;;5029177;28;20033;-75
2022/11/17 02:46:41;;;;;;;0.55;0.55;;;0.80;99.90;;;;;;5029217;28;20114;-75
2022/11/17 02:49:17;;;;;;;0.57;0.57;;;0.80;99.90;;;;;;5031075;28;20061;-73
2022/11/17 02:51:43;;;;;;;0.65;0.65;;;0.80;99.90;;;;;;5030497;28;20021;-75
2022/11/17 02:54:10;;;;;;;1.10;1.10;;;0.80;99.90;;;;;;5029419;28;20034;-75
2022/11/17 02:56:42;;;;;;;1.63;1.52;;;0.90;99.90;;;;;;5029219;28;20099;-75
2022/11/17 02:59:11;;;;;;;0.40;0.40;;;0.80;99.90;;;;;;5030826;28;20050;-75
2022/11/17 03:02:09;;;;;;;1.63;1.52;;;0.80;99.90;;;;;;5028966;28;20435;-74
2022/11/17 03:05:07;;;;;;;0.50;0.50;;;0.70;99.90;;;;;;5028953;28;20495;-75
2022/11/17 03:07:45;;;;;;;0.40;0.40;;;0.80;99.90;;;;;;5030381;28;20056;-74
2022/11/17 03:10:22;;;;;;;0.40;0.40;;;0.80;99.90;;;;;;5028974;28;20448;-74
2022/11/17 03:12:57;;;;;;;0.50;0.50;;;0.80;99.90;;;;;;5030604;28;20413;-75
2022/11/17 03:15:45;;;;;;;0.30;0.30;;;0.80;99.90;;;;;;5029248;28;20465;-75
2022/11/17 03:18:37;;;;;;;0.47;0.47;;;0.80;99.90;;;;;;5029002;28;20034;-73
2022/11/17 03:21:02;;;;;;;0.60;0.60;;;0.80;99.90;;;;;;5028712;28;20041;-75
2022/11/17 03:23:37;;;;;;;1.80;1.70;;;0.80;99.90;;;;;;5030595;28;20479;-75
2022/11/17 03:26:08;;;;;;;0.40;0.40;;;0.80;99.90;;;;;;5030332;28;20021;-75
2022/11/17 03:28:35;;;;;;;0.70;0.70;;;0.70;99.90;;;;;;5028938;28;20481;-74
2022/11/17 03:31:03;;;;;;;;;;;0.80;99.90;;;;;;5029448;28;20034;-75
2022/11/17 03:33:30;;;;;;;2.65;1.95;;;1.70;99.90;;;;;;5028987;28;19948;-75
2022/11/17 03:36:14;;;;;;;0.50;0.50;;;-2.40;99.90;;;;;;5030460;28;20030;-75
2022/11/17 03:38:46;;;;;;;0.40;0.40;;;0.70;99.90;;;;;;5033997;28;20033;-75
2022/11/17 03:41:14;;;;;;;0.55;0.55;;;0.70;99.90;;;;;;5033691;28;20553;-75
2022/11/17 03:43:43;;;;;;;0.40;0.40;;;0.70;99.90;;;;;;5034476;28;20033;-75
2022/11/17 03:46:13;;;;;;;0.45;0.45;;;0.80;99.90;;;;;;5032595;28;20069;-74
2022/11/17 03:48:54;;;;;;;0.55;0.55;;;1.10;99.90;;;;;;5034298;28;20045;-75
2022/11/17 03:51:26;;;;;;;0.40;0.40;;;0.70;99.90;;;;;;5033937;28;20037;-75
2022/11/17 03:53:53;;;;;;;0.40;0.40;;;0.70;99.90;;;;;;5034331;28;20041;-74
2022/11/17 03:56:38;;;;;;;0.70;0.70;;;0.70;99.90;;;;;;5032321;28;20392;-75
2022/11/17 03:59:09;;;;;;;0.40;0.40;;;0.70;99.90;;;;;;5032412;28;20026;-74
2022/11/17 04:01:35;;;;;;;0.85;0.85;;;0.70;99.90;;;;;;5032275;28;20088;-74
2022/11/17 04:04:01;;;;;;;0.50;0.50;;;0.70;99.90;;;;;;5034025;28;20138;-75
2022/11/17 04:06:27;;;;;;;0.40;0.40;;;0.60;99.90;;;;;;5033346;28;20033;-76
2022/11/17 04:08:52;;;;;;;1.37;1.30;;;0.70;99.90;;;;;;5033594;28;20065;-76
2022/11/17 04:16:47;;;;;;;0.77;0.77;;;0.60;99.90;;;;;;5034022;28;20090;-75
2022/11/17 04:19:12;;;;;;;0.50;0.50;;;0.60;99.90;;;;;;5033680;28;20120;-74
2022/11/17 04:21:38;;;;;;;2.33;2.23;;;0.60;99.90;;;;;;5033130;28;20029;-74
2022/11/17 04:24:04;;;;;;;1.43;1.30;;;0.60;99.90;;;;;;5033922;28;20025;-74
2022/11/17 04:29:13;;;;;;;0.70;0.70;;;0.60;99.90;;;;;;5033333;28;20053;-74
2022/11/17 04:31:39;;;;;;;0.70;0.70;;;0.60;99.90;;;;;;5032992;28;20022;-75
2022/11/17 04:34:07;;;;;;;0.40;0.40;;;0.50;99.90;;;;;;5033352;28;20049;-75
2022/11/17 04:36:42;;;;;;;0.40;0.40;;;0.50;99.90;;;;;;5032957;28;20022;-74
2022/11/17 04:39:08;;;;;;;1.55;1.45;;;0.50;99.90;;;;;;5033096;28;20520;-75
2022/11/17 04:41:52;;;;;;;1.70;1.58;;;0.90;99.90;;;;;;5032613;28;20241;-75
2022/11/17 04:44:21;;;;;;;0.75;0.75;;;0.50;99.90;;;;;;5031697;28;20033;-75
2022/11/17 04:46:47;;;;;;;0.80;0.80;;;0.50;99.90;;;;;;5030959;28;20341;-74
2022/11/17 04:49:14;;;;;;;1.30;0.87;;;0.50;99.90;;;;;;5031178;28;20040;-75
2022/11/17 04:51:41;;;;;;;0.45;0.45;;;0.80;99.90;;;;;;5032357;28;20025;-75
2022/11/17 04:54:08;;;;;;;0.95;0.95;;;0.50;99.90;;;;;;5033180;28;20041;-75
2022/11/17 04:56:34;;;;;;;0.40;0.40;;;0.60;99.90;;;;;;5032523;28;20037;-75
2022/11/17 04:58:59;;;;;;;0.70;0.70;;;0.30;99.90;;;;;;5031001;28;20406;-74
2022/11/17 05:01:26;;;;;;;0.50;0.50;;;0.60;99.90;;;;;;5032190;28;20033;-75
2022/11/17 05:03:57;;;;;;;0.40;0.40;;;0.40;99.90;;;;;;5032644;28;20070;-75
2022/11/17 05:06:26;;;;;;;0.95;0.95;;;0.70;99.90;;;;;;5032285;28;20029;-74
2022/11/17 05:08:56;;;;;;;0.43;0.43;;;0.50;99.90;;;;;;5032256;28;20123;-75
2022/11/17 05:14:10;;;;;;;0.50;0.50;;;0.40;99.90;;;;;;5032945;28;20476;-75
2022/11/17 05:19:23;;;;;;;0.50;0.50;;;0.40;99.90;;;;;;5032286;28;20172;-75
2022/11/17 05:21:49;;;;;;;1.58;1.48;;;0.30;99.90;;;;;;5030446;28;20041;-75
2022/11/17 05:24:15;;;;;;;0.60;0.60;;;0.40;99.90;;;;;;5030746;28;20042;-76
2022/11/17 05:26:42;;;;;;;0.93;0.93;;;0.30;99.90;;;;;;5030581;28;20030;-75
2022/11/17 05:29:09;;;;;;;0.57;0.57;;;0.30;99.90;;;;;;5030501;28;20033;-75
2022/11/17 05:31:35;;;;;;;0.80;0.80;;;0.30;99.90;;;;;;5031985;28;20507;-77
2022/11/17 05:34:02;;;;;;;0.68;0.68;;;0.30;99.90;;;;;;5030918;28;20033;-75
2022/11/17 05:36:28;;;;;;;0.40;0.40;;;0.30;99.90;;;;;;5031786;28;20425;-76
2022/11/17 05:38:54;;;;;;;0.50;0.50;;;0.40;99.90;;;;;;5030836;28;20037;-75
2022/11/17 05:41:21;;;;;;;0.70;0.70;;;2.70;99.90;;;;;;5030477;28;20048;-74
2022/11/17 05:43:49;;;;;;;0.50;0.50;;;0.40;99.90;;;;;;5032186;28;20030;-75
2022/11/17 05:46:16;;;;;;;0.82;0.82;;;0.30;99.90;;;;;;5030672;28;20025;-74
2022/11/17 05:48:42;;;;;;;0.40;0.40;;;0.30;99.90;;;;;;5031818;28;20080;-75
2022/11/17 05:51:09;;;;;;;0.40;0.40;;;0.30;99.90;;;;;;5030512;28;20420;-76
2022/11/17 05:53:34;;;;;;;0.57;0.57;;;0.30;99.90;;;;;;5030492;28;20041;-75
2022/11/17 05:56:15;;;;;;;0.50;0.50;;;0.30;99.90;;;;;;5030412;28;20037;-75
2022/11/17 05:58:46;;;;;;;2.00;1.90;;;0.30;99.90;;;;;;5031960;28;20042;-74
2022/11/17 06:01:14;;;;;;;0.50;0.50;;;0.30;99.90;;;;;;5030039;28;20025;-74
2022/11/17 06:03:44;;;;;;;0.35;0.35;;;0.30;99.90;;;;;;5031508;28;20369;-74
2022/11/17 06:06:10;;;;;;;0.40;0.40;;;0.30;99.90;;;;;;5030971;28;20217;-68
2022/11/17 06:08:36;;;;;;;0.73;0.73;;;0.30;99.90;;;;;;5030872;28;20148;-68
2022/11/17 06:11:02;;;;;;;0.40;0.40;;;0.50;99.90;;;;;;5030626;28;20065;-68
2022/11/17 06:13:27;;;;;;;2.10;2.00;;;0.50;99.90;;;;;;5030721;28;20037;-68
2022/11/17 06:15:58;;;;;;;1.37;1.27;;;0.40;99.90;;;;;;5030003;28;20382;-69
2022/11/17 06:18:29;;;;;;;0.70;0.70;;;0.50;99.90;;;;;;5030507;28;20037;-68
2022/11/17 06:20:55;;;;;;;1.05;1.05;;;0.40;99.90;;;;;;5028824;28;20061;-68
2022/11/17 06:23:25;;;;;;;0.50;0.50;;;0.40;99.90;;;;;;5030559;28;20472;-68
2022/11/17 06:25:51;;;;;;;0.40;0.40;;;-0.10;99.90;;;;;;5030584;28;20052;-68
2022/11/17 06:28:19;;;;;;;0.53;0.53;;;0.30;99.90;;;;;;5028957;28;20065;-68
2022/11/17 06:30:45;;;;;;;0.40;0.40;;;0.30;99.90;;;;;;5030171;28;20041;-68
2022/11/17 06:33:14;;;;;;;0.50;0.50;;;0.20;99.90;;;;;;5030457;28;20145;-69
2022/11/17 06:35:41;;;;;;;0.40;0.40;;;0.30;99.90;;;;;;5030218;28;20025;-69
2022/11/17 06:38:07;;;;;;;1.45;1.40;;;0.30;99.90;;;;;;5030381;28;20037;-68
2022/11/17 06:40:32;;;;;;;0.83;0.83;;;0.30;99.90;;;;;;5030606;28;20110;-68
2022/11/17 06:43:08;;;;;;;0.70;0.70;;;0.30;99.90;;;;;;5031069;28;20124;-68
2022/11/17 06:45:35;;;;;;;0.40;0.40;;;0.40;99.90;;;;;;5031178;28;20025;-68
2022/11/17 06:48:01;;;;;;;0.73;0.73;;;0.20;99.90;;;;;;5030265;28;20116;-69
2022/11/17 06:50:27;;;;;;;0.83;0.83;;;0.30;99.90;;;;;;5029243;28;20113;-69
2022/11/17 06:53:00;;;;;;;0.77;0.77;;;0.30;99.90;;;;;;5030462;28;20055;-67
2022/11/17 06:55:26;;;;;;;0.50;0.50;;;0.20;99.90;;;;;;5030323;28;20185;-68
2022/11/17 06:58:01;;;;;;;0.40;0.40;;;0.20;99.90;;;;;;5030752;28;20038;-68
2022/11/17 07:00:27;;;;;;;0.40;0.40;;;0.20;99.90;;;;;;5028753;28;20032;-70
2022/11/17 07:02:59;;;;;;;1.30;1.30;;;0.20;99.90;;;;;;5029267;28;20478;-69
2022/11/17 07:05:25;;;;;;;0.40;0.40;;;0.20;99.90;;;;;;5030932;28;20504;-69
2022/11/17 07:07:51;;;;;;;0.98;0.98;;;0.20;99.90;;;;;;5028903;28;20049;-69
2022/11/17 07:10:16;;;;;;;0.53;0.53;;;0.20;99.90;;;;;;5031153;28;20476;-70
2022/11/17 07:12:44;;;;;;;0.50;0.50;;;0.20;99.90;;;;;;5034861;28;20041;-69
2022/11/17 07:15:10;;;;;;;1.27;1.25;;;0.20;99.90;;;;;;5034586;28;20029;-69
2022/11/17 07:17:35;;;;;;;0.40;0.40;;;0.20;99.90;;;;;;5035043;28;20037;-69
2022/11/17 07:20:02;;;;;;;1.37;1.37;;;;;;;;;;5033698;28;20080;-71
2022/11/17 07:22:28;;;;;;;0.75;0.75;;;0.20;99.90;;;;;;5033851;28;20025;-69
2022/11/17 07:24:54;;;;;;;1.03;1.03;;;0.20;99.90;;;;;;5033332;28;20109;-68
2022/11/17 07:27:19;;;;;;;0.40;0.40;;;;;;;;;;5034391;28;20042;-69
2022/11/17 07:29:45;;;;;;;0.50;0.50;;;0.30;99.90;;;;;;5033052;28;20629;-69
2022/11/17 07:32:12;;;;;;;0.50;0.50;;;0.20;99.90;;;;;;5033880;28;20033;-70
2022/11/17 07:34:39;;;;;;;0.50;0.50;;;0.30;99.90;;;;;;5034282;28;20025;-68
2022/11/17 07:37:05;;;;;;;0.68;0.68;;;0.40;99.90;;;;;;5032510;28;20029;-69
2022/11/17 07:39:30;;;;;;;0.47;0.47;;;0.30;99.90;;;;;;5032389;28;20033;-70
2022/11/17 07:41:56;;;;;;;0.50;0.50;;;0.50;99.90;;;;;;5033211;28;20036;-69
2022/11/17 07:44:21;;;;;;;1.50;1.03;;;0.30;99.90;;;;;;5033740;28;20021;-70
2022/11/17 07:46:47;;;;;;;0.43;0.43;;;0.30;99.90;;;;;;5034029;28;20449;-70
2022/11/17 07:49:12;;;;;;;0.50;0.50;;;0.40;99.90;;;;;;5032431;28;20029;-70
2022/11/17 07:51:38;;;;;;;0.70;0.70;;;0.30;99.90;;;;;;5034142;28;20029;-70
2022/11/17 07:54:04;;;;;;;0.40;0.40;;;0.30;99.90;;;;;;5033958;28;20397;-69
2022/11/17 07:56:29;;;;;;;0.87;0.87;;;0.30;99.90;;;;;;5033259;28;20022;-69
2022/11/17 07:58:55;;;;;;;1.57;1.47;;;0.40;99.90;;;;;;5033743;28;20030;-69
2022/11/17 08:01:20;;;;;;;0.60;0.60;;;0.40;99.90;;;;;;5028940;28;20025;-70
2022/11/17 08:03:46;;;;;;;0.53;0.53;;;0.30;99.90;;;;;;5021634;28;20050;-69
2022/11/17 08:06:12;;;;;;;0.60;0.60;;;0.40;99.90;;;;;;5023591;28;20022;-70
2022/11/17 08:08:37;;;;;;;0.87;0.87;;;0.40;99.90;;;;;;5031937;28;20057;-69
2022/11/17 08:11:05;;;;;;;0.60;0.60;;;0.40;99.90;;;;;;5032830;28;20025;-68
2022/11/17 08:13:31;;;;;;;0.93;0.93;;;0.40;99.90;;;;;;5033135;28;20270;-70
2022/11/17 08:16:00;;;;;;;0.60;0.60;;;0.50;99.90;;;;;;5032686;28;20040;-70
2022/11/17 08:18:27;;;;;;;2.13;1.92;;;0.50;99.90;;;;;;5033267;28;20241;-70
2022/11/17 08:21:06;;;;;;;0.65;0.65;;;0.50;99.90;;;;;;5032987;28;20473;-70
2022/11/17 08:23:33;;;;;;;1.02;1.02;;;0.50;99.90;;;;;;5032370;28;20116;-69
2022/11/17 08:25:59;;;;;;;0.50;0.50;;;0.50;99.90;;;;;;5032809;28;20549;-69
2022/11/17 08:28:25;;;;;;;1.83;1.67;;;0.50;99.90;;;;;;5032804;28;20045;-69
2022/11/17 08:30:50;;;;;;;0.40;0.40;;;0.60;99.90;;;;;;5032511;28;20380;-69
2022/11/17 08:33:19;;;;;;;0.50;0.50;;;0.60;99.90;;;;;;5032348;28;20099;-70
2022/11/17 08:35:44;;;;;;;0.90;0.90;;;0.60;99.90;;;;;;5032568;28;20245;-69
2022/11/17 08:38:11;;;;;;;0.80;0.80;;;0.60;99.90;;;;;;5031294;28;20132;-69
2022/11/17 08:40:37;;;;;;;0.60;0.60;;;0.60;99.90;;;;;;5032140;28;20017;-70
2022/11/17 08:43:03;;;;;;;0.80;0.80;;;0.60;99.90;;;;;;5032734;28;20091;-69
2022/11/17 08:45:30;;;;;;;0.75;0.75;;;0.60;99.90;;;;;;5032744;28;20026;-70
2022/11/17 08:47:56;;;;;;;0.95;0.95;;;0.50;99.90;;;;;;5033250;28;20068;-69
2022/11/17 08:50:22;;;;;;;0.40;0.40;;;0.60;99.90;;;;;;5032517;28;20053;-69
2022/11/17 08:52:47;;;;;;;0.50;0.50;;;0.60;99.90;;;;;;5033249;28;20036;-68
2022/11/17 08:55:13;;;;;;;0.60;0.60;;;0.50;99.90;;;;;;5032400;28;20049;-68
2022/11/17 08:57:38;;;;;;;0.60;0.60;;;0.70;99.90;;;;;;5032694;28;20077;-69
2022/11/17 09:00:08;;;;;;;0.50;0.50;;;0.60;99.90;;;;;;5030957;28;20312;-69
2022/11/17 09:02:34;;;;;;;1.02;1.02;;;0.60;99.90;;;;;;5032381;28;20094;-67
2022/11/17 09:04:59;;;;;;;0.60;0.60;;;0.60;99.90;;;;;;5032459;28;20025;-67
2022/11/17 09:07:25;;;;;;;1.10;1.10;;;0.60;99.90;;;;;;5032592;28;20128;-68
2022/11/17 09:09:50;;;;;;;1.50;1.40;;;0.60;99.90;;;;;;5032545;28;20059;-68
2022/11/17 09:12:17;;;;;;;0.40;0.40;;;0.60;99.90;;;;;;5032470;28;20037;-67
2022/11/17 09:14:42;;;;;;;0.50;0.50;;;0.60;99.90;;;;;;5032693;28;20076;-67
2022/11/17 09:17:08;;;;;;;1.03;1.03;;;0.60;99.90;;;;;;5032114;28;20030;-68
2022/11/17 09:19:34;;;;;;;0.50;0.50;;;0.60;99.90;;;;;;5032310;28;20049;-69
2022/11/17 09:21:59;;;;;;;0.50;0.50;;;0.60;99.90;;;;;;5031152;28;20025;-68
2022/11/17 09:24:25;;;;;;;0.57;0.57;;;0.50;99.90;;;;;;5032971;28;20495;-69
2022/11/17 09:26:56;;;;;;;1.57;1.47;;;0.50;99.90;;;;;;5032435;28;20502;-70
2022/11/17 09:29:22;;;;;;;0.57;0.57;;;0.50;99.90;;;;;;5032507;28;20365;-69
2022/11/17 09:31:47;;;;;;;0.50;0.50;;;0.60;99.90;;;;;;5032098;28;20025;-68
2022/11/17 09:34:13;;;;;;;0.40;0.40;;;0.60;99.90;;;;;;5031318;28;20045;-68
2022/11/17 09:36:38;;;;;;;0.50;0.50;;;0.60;99.90;;;;;;5030898;28;20033;-68
2022/11/17 09:39:04;;;;;;;0.60;0.60;;;0.60;99.90;;;;;;5032068;28;20052;-67
2022/11/17 09:41:48;;;;;;;0.87;0.87;;;0.50;99.90;;;;;;5030932;28;20401;-68
2022/11/17 09:44:25;;;;;;;0.88;0.85;;;0.50;99.90;;;;;;5031754;28;20034;-68
2022/11/17 09:47:12;;;;;;;;;;;0.60;99.90;;;;;;5031030;28;20041;-68
2022/11/17 09:49:59;;;;;;;0.30;0.30;;;0.40;99.90;;;;;;5030744;28;19904;-68
2022/11/17 09:52:42;;;;;;;1.70;1.63;;;0.50;99.90;;;;;;5031356;28;20061;-68
2022/11/17 09:55:08;;;;;;;2.28;2.17;;;0.60;99.90;;;;;;5030773;28;20025;-68
2022/11/17 09:57:47;;;;;;;0.60;0.60;;;0.60;99.90;;;;;;5031102;28;20434;-69
2022/11/17 10:00:20;;;;;;;1.00;1.00;;;1.80;99.90;;;;;;5031074;28;20040;-68
2022/11/17 10:02:47;;;;;;;0.55;0.55;;;0.60;99.90;;;;;;5031655;28;20026;-69
2022/11/17 10:05:30;;;;;;;0.85;0.85;;;0.60;99.90;;;;;;5030659;28;20030;-67
2022/11/17 10:08:02;;;;;;;0.40;0.40;;;0.50;99.90;;;;;;5030711;28;20131;-69
2022/11/17 10:10:48;;;;;;;3.70;1.15;;;0.50;99.90;;;;;;5030742;28;20112;-68
2022/11/17 10:13:29;;;;;;;0.60;0.60;;;0.50;99.90;;;;;;5030917;28;20166;-68
2022/11/17 10:15:57;;;;;;;0.50;0.50;;;0.50;99.90;;;;;;5030482;28;20017;-68
2022/11/17 10:18:23;;;;;;;0.80;0.80;;;0.50;99.90;;;;;;5031261;28;20033;-68
2022/11/17 10:20:50;;;;;;;1.80;1.70;;;0.50;99.90;;;;;;5030983;28;20033;-68
2022/11/17 10:23:18;;;;;;;0.40;0.40;;;0.40;99.90;;;;;;5030632;28;20034;-68
2022/11/17 10:25:55;;;;;;;0.77;0.77;;;0.40;99.90;;;;;;5030220;28;20032;-68
2022/11/17 10:28:31;;;;;;;;;;;0.40;99.90;;;;;;5030745;28;20033;-68
2022/11/17 10:31:23;;;;;;;0.45;0.45;;;0.30;99.90;;;;;;5029046;28;20054;-69
2022/11/17 10:33:49;;;;;;;2.08;1.80;;;0.40;99.90;;;;;;5029585;28;20440;-69
2022/11/17 10:36:22;;;;;;;5.20;4.38;;;0.40;99.90;;;;;;5030132;28;20029;-68
2022/11/17 10:38:51;;;;;;;0.65;0.65;;;0.40;99.90;;;;;;5030774;28;20049;-68
2022/11/17 10:41:27;;;;;;;0.98;0.98;;;0.40;99.90;;;;;;5030158;28;20045;-69
2022/11/17 10:44:12;;;;;;;0.50;0.50;;;0.40;99.90;;;;;;5030356;28;20080;-69
2022/11/17 10:46:54;;;;;;;0.60;0.60;;;0.40;99.90;;;;;;5029020;28;20022;-69
2022/11/17 10:49:28;;;;;;;1.13;1.13;;;0.40;99.90;;;;;;5029404;28;20042;-69
2022/11/17 10:52:10;;;;;;;0.50;0.50;;;0.40;99.90;;;;;;5026103;28;20508;-69
2022/11/17 10:54:36;;;;;;;0.70;0.70;;;0.40;99.90;;;;;;5029359;28;20370;-70
2022/11/17 10:57:08;;;;;;;0.75;0.75;;;0.40;99.90;;;;;;5029980;28;20037;-62
2022/11/17 10:59:47;;;;;;;1.58;1.50;;;0.40;99.90;;;;;;5029206;28;20057;-63
2022/11/17 11:02:32;;;;;;;0.70;0.70;;;0.40;99.90;;;;;;5028826;28;20119;-67
2022/11/17 11:05:13;;;;;;;1.42;1.35;;;0.40;99.90;;;;;;5029440;28;20333;-66
2022/11/17 11:07:39;;;;;;;0.50;0.50;;;0.40;99.90;;;;;;5027441;28;20045;-66
2022/11/17 11:10:18;;;;;;;0.50;0.50;;;-0.10;99.90;;;;;;5028956;28;20049;-68
2022/11/17 11:13:13;;;;;;;0.40;0.40;;;0.40;99.90;;;;;;5019234;28;20038;-67
2022/11/17 11:15:39;;;;;;;0.50;0.50;;;0.40;99.90;;;;;;5019940;28;20105;-67
2022/11/17 11:18:11;;;;;;;1.03;1.03;;;0.40;99.90;;;;;;5028796;28;20042;-67
2022/11/17 11:20:53;;;;;;;0.80;0.80;;;0.40;99.90;;;;;;5028116;28;20045;-66
2022/11/17 11:23:47;;;;;;;2.17;1.27;;;0.40;99.90;;;;;;5028376;28;20079;-66
2022/11/17 11:26:37;;;;;;;0.40;0.40;;;0.40;99.90;;;;;;5028983;28;20426;-66
2022/11/17 11:29:17;;;;;;;0.38;0.38;;;0.40;99.90;;;;;;5029783;28;20342;-66
2022/11/17 11:31:45;;;;;;;1.20;1.15;;;0.50;99.90;;;;;;5026388;28;20131;-65
2022/11/17 11:34:41;;;;;;;3.00;1.10;;;0.60;99.90;;;;;;5030291;28;20041;-65
2022/11/17 11:37:10;;;;;;;0.40;0.40;;;0.70;99.90;;;;;;5027170;28;20030;-67
2022/11/17 11:39:54;;;;;;;0.82;0.82;;;0.50;99.90;;;;;;5029213;28;20132;-66
2022/11/17 11:42:32;;;;;;;0.50;0.50;;;3.00;99.90;;;;;;5027968;28;20072;-67
2022/11/17 11:45:06;;;;;;;0.50;0.50;;;1.10;99.90;;;;;;5024129;28;20021;-67
2022/11/17 11:47:47;;;;;;;0.40;0.40;;;0.40;99.90;;;;;;5029962;28;20465;-67
2022/11/17 11:50:18;;;;;;;1.05;1.00;;;0.40;99.90;;;;;;5027262;28;20365;-65
2022/11/17 11:52:49;;;;;;;0.95;0.95;;;0.40;99.90;;;;;;5027986;28;20350;-66
2022/11/17 11:55:23;;;;;;;1.70;1.45;;;0.40;99.90;;;;;;5026953;28;20029;-66
2022/11/17 11:57:59;;;;;;;0.45;0.45;;;0.40;99.90;;;;;;5027418;28;20121;-65
2022/11/17 12:00:25;;;;;;;0.55;0.55;;;0.40;99.90;;;;;;5034221;28;20029;-66
2022/11/17 12:03:02;;;;;;;0.40;0.40;;;0.40;99.90;;;;;;5034494;28;20034;-66
2022/11/17 12:05:36;;;;;;;0.85;0.85;;;0.40;99.90;;;;;;5032222;28;20026;-64
2022/11/17 12:08:27;;;;;;;0.85;0.85;;;0.50;99.90;;;;;;5031865;28;20046;-62
2022/11/17 12:13:59;;;;;;;0.40;0.40;;;0.50;99.90;;;;;;5031637;28;20083;-67
2022/11/17 12:16:33;;;;;;;0.90;0.90;;;0.50;99.90;;;;;;5031009;28;20140;-66
2022/11/17 12:18:59;;;;;;;0.50;0.50;;;0.50;99.90;;;;;;5032187;28;20336;-66
2022/11/17 12:21:28;;;;;;;0.50;0.50;;;0.50;99.90;;;;;;5033453;28;20045;-67
2022/11/17 12:24:00;;;;;;;0.40;0.40;;;0.40;99.90;;;;;;5032825;28;20289;-67
2022/11/17 12:26:30;;;;;;;0.50;0.50;;;0.40;99.90;;;;;;5033565;28;20548;-66
2022/11/17 12:29:25;;;;;;;0.88;0.88;;;0.30;99.90;;;;;;5031846;28;20052;-66
2022/11/17 12:31:56;;;;;;;0.30;0.30;;;0.40;99.90;;;;;;5032937;28;20041;-66
2022/11/17 12:34:24;;;;;;;1.42;1.33;;;0.40;99.90;;;;;;5037930;28;20052;-67
2022/11/17 12:37:13;;;;;;;0.70;0.70;;;0.40;99.90;;;;;;5034111;28;20033;-67
2022/11/17 12:40:00;;;;;;;1.60;1.50;;;0.30;99.90;;;;;;5035938;28;20060;-66
2022/11/17 12:42:27;;;;;;;0.40;0.40;;;0.30;99.90;;;;;;5032128;28;20037;-67
2022/11/17 12:44:59;;;;;;;0.70;0.70;;;0.30;99.90;;;;;;5032076;28;20026;-65
2022/11/17 12:47:31;;;;;;;0.73;0.73;;;0.30;99.90;;;;;;5032274;28;20049;-66
2022/11/17 12:50:03;;;;;;;0.38;0.38;;;0.30;99.90;;;;;;5030549;28;20018;-65
2022/11/17 12:53:04;;;;;;;0.45;0.45;;;0.30;99.90;;;;;;5030874;28;20489;-65
2022/11/17 12:55:41;;;;;;;0.40;0.40;;;0.30;99.90;;;;;;5026118;28;20418;-64
2022/11/17 12:58:27;;;;;;;;;;;0.30;99.90;;;;;;5030666;28;20082;-66
2022/11/17 13:01:10;;;;;;;0.98;0.98;;;0.30;99.90;;;;;;5029159;28;19959;-67
2022/11/17 13:03:50;;;;;;;1.10;1.10;;;0.30;99.90;;;;;;5031488;28;20029;-66
2022/11/17 13:06:16;;;;;;;0.50;0.50;;;0.20;99.90;;;;;;5031641;28;20025;-66
2022/11/17 13:08:56;;;;;;;0.40;0.40;;;0.10;99.90;;;;;;5031994;28;20089;-66
2022/11/17 13:11:22;;;;;;;0.52;0.52;;;0.20;99.90;;;;;;5029179;28;20410;-66
2022/11/17 13:13:47;;;;;;;0.98;0.98;;;0.20;99.90;;;;;;5032674;28;20037;-67
2022/11/17 13:16:20;;;;;;;0.50;0.50;;;0.10;99.90;;;;;;5032865;28;20104;-66
2022/11/17 13:18:47;;;;;;;0.50;0.50;;;0.10;99.90;;;;;;5032124;28;20061;-65
2022/11/17 13:21:31;;;;;;;0.50;0.50;;;0.10;99.90;;;;;;5032440;28;20524;-66
2022/11/17 13:23:59;;;;;;;0.40;0.40;;;0.10;99.90;;;;;;5031722;28;20025;-66
2022/11/17 13:26:36;;;;;;;0.60;0.60;;;0.10;99.90;;;;;;5030321;28;20029;-65
2022/11/17 13:29:18;;;;;;;0.90;0.90;;;0.10;99.90;;;;;;5032873;28;20040;-64
2022/11/17 13:31:43;;;;;;;0.47;0.47;;;0.20;99.90;;;;;;5031079;28;20461;-65
2022/11/17 13:34:09;;;;;;;0.40;0.40;;;0.20;99.90;;;;;;5031577;28;20067;-67
2022/11/17 13:36:35;;;;;;;0.60;0.60;;;0.20;99.90;;;;;;5028933;28;20297;-66
2022/11/17 13:39:01;;;;;;;1.20;1.20;;;0.10;99.90;;;;;;5031832;28;20034;-65
2022/11/17 13:41:37;;;;;;;0.63;0.63;;;0.10;99.90;;;;;;5030390;28;20037;-66
2022/11/17 13:44:05;;;;;;;0.40;0.40;;;0.10;99.90;;;;;;5029935;28;20038;-65
2022/11/17 13:46:33;;;;;;;0.70;0.70;;;0.10;99.90;;;;;;5029929;28;20624;-68